Time;durP1;ratioP1;P1;durP2;ratioP2;P2;SDS_P1;SDS_P2;PMS_P1;PMS_P2;Temp;Humidity;BMP_temperature;BMP_pressure;BME280_temperature;BME280_humidity;BME280_pressure;Samples;Min_cycle;Max_cycle;Signal;HPM_P1;HPM_P2
2020/12/09 00:02:27;;;;;;;0.60;0.40;;;;;;;4.97;100.00;98699.94;5054068;28;20071;-74
2020/12/09 00:05:30;;;;;;;0.10;0.10;;;;;;;4.95;100.00;98707.94;5053997;28;20508;-75
2020/12/09 00:08:33;;;;;;;2.95;0.88;;;;;;;4.96;100.00;98701.94;5053902;28;20072;-75
2020/12/09 00:11:37;;;;;;;4.00;0.65;;;;;;;4.98;100.00;98709.78;5053802;28;20570;-75
2020/12/09 00:14:40;;;;;;;0.20;0.10;;;;;;;4.95;100.00;98705.19;5054079;28;20101;-74
2020/12/09 00:17:43;;;;;;;0.47;0.20;;;;;;;4.96;100.00;98706.72;5053831;28;20087;-74
2020/12/09 00:20:46;;;;;;;2.05;0.43;;;;;;;4.92;100.00;98709.63;5053814;28;20147;-74
2020/12/09 00:23:53;;;;;;;0.75;0.17;;;;;;;4.92;100.00;98708.84;5053408;28;20048;-75
2020/12/09 00:26:57;;;;;;;0.35;0.17;;;;;;;4.90;100.00;98716.84;5053478;28;20052;-74
2020/12/09 00:30:03;;;;;;;0.32;0.22;;;;;;;4.90;100.00;98719.59;5053448;28;20546;-74
2020/12/09 00:33:06;;;;;;;3.25;0.52;;;;;;;4.88;100.00;98719.28;5053778;28;20101;-74
2020/12/09 00:36:08;;;;;;;1.38;0.22;;;;;;;4.89;100.00;98729.88;5053806;28;20055;-74
2020/12/09 00:39:11;;;;;;;1.55;0.47;;;;;;;4.89;100.00;98715.31;5053408;28;20048;-74
2020/12/09 00:42:14;;;;;;;2.92;0.45;;;;;;;4.91;100.00;98732.16;5052472;28;20057;-74
2020/12/09 00:45:17;;;;;;;0.38;0.10;;;;;;;4.90;100.00;98727.88;5055180;28;20095;-74
2020/12/09 00:48:20;;;;;;;0.90;0.22;;;;;;;4.88;100.00;98727.56;5053448;28;20068;-75
2020/12/09 00:51:25;;;;;;;1.50;0.45;;;;;;;4.87;100.00;98721.31;5053069;28;20103;-74
2020/12/09 00:54:28;;;;;;;0.50;0.30;;;;;;;4.87;100.00;98720.53;5053171;28;20087;-74
2020/12/09 00:57:31;;;;;;;0.63;0.57;;;;;;;4.88;100.00;98724.81;5040875;28;20048;-74
2020/12/09 01:00:34;;;;;;;3.60;1.40;;;;;;;4.87;100.00;98717.78;5053207;28;20187;-75
2020/12/09 01:03:37;;;;;;;15.07;1.27;;;;;;;4.87;100.00;98732.34;5052895;28;20088;-75
2020/12/09 01:06:40;;;;;;;4.75;1.15;;;;;;;4.86;100.00;98732.78;5052993;28;20099;-73
2020/12/09 01:09:43;;;;;;;1.35;0.88;;;;;;;4.86;100.00;98728.03;5052778;28;20095;-75
2020/12/09 01:12:46;;;;;;;0.15;0.15;;;;;;;4.86;100.00;98721.75;5052904;28;20055;-75
2020/12/09 01:15:49;;;;;;;1.02;0.47;;;;;;;4.84;100.00;98726.97;5032942;28;20052;-74
2020/12/09 01:18:52;;;;;;;6.53;1.17;;;;;;;4.83;100.00;98725.44;5032747;28;20461;-75
2020/12/09 01:21:55;;;;;;;0.32;0.32;;;;;;;4.81;100.00;98722.41;5032588;28;20052;-74
2020/12/09 01:24:58;;;;;;;2.20;0.75;;;;;;;4.78;100.00;98731.59;5032738;28;20127;-73
2020/12/09 01:28:02;;;;;;;7.32;0.45;;;;;;;4.77;100.00;98732.81;5032981;28;20056;-74
2020/12/09 01:31:05;;;;;;;0.73;0.47;;;;;;;4.75;100.00;98732.50;5031743;28;20080;-74
2020/12/09 01:34:08;;;;;;;0.98;0.65;;;;;;;4.74;100.00;98736.50;5032299;28;20128;-74
2020/12/09 01:37:14;;;;;;;1.33;0.35;;;;;;;4.72;100.00;98741.72;5032447;28;20123;-74
2020/12/09 01:40:17;;;;;;;0.20;0.17;;;;;;;4.73;100.00;98744.00;5032461;28;20048;-75
2020/12/09 01:43:21;;;;;;;1.80;0.32;;;;;;;4.71;100.00;98742.94;5032440;28;20052;-74
2020/12/09 01:46:31;;;;;;;14.90;0.50;;;;;;;4.71;100.00;98742.94;5032287;28;20402;-74
2020/12/09 01:49:35;;;;;;;18.40;1.20;;;;;;;4.71;100.00;98753.97;5032274;28;20057;-74
2020/12/09 01:52:38;;;;;;;13.95;1.45;;;;;;;4.71;100.00;98759.47;5031966;28;20143;-74
2020/12/09 01:55:41;;;;;;;0.25;0.20;;;;;;;4.70;100.00;98757.97;5032190;28;20103;-73
2020/12/09 01:58:44;;;;;;;10.85;1.85;;;;;;;4.72;100.00;98761.03;5032182;28;20048;-74
2020/12/09 02:01:47;;;;;;;4.85;1.10;;;;;;;4.70;100.00;98785.53;5032226;28;20055;-74
2020/12/09 02:04:50;;;;;;;0.52;0.20;;;;;;;4.71;100.00;98787.06;5032094;28;20096;-74
2020/12/09 02:07:54;;;;;;;0.40;0.20;;;;;;;4.69;100.00;98784.00;5031507;28;20103;-75
2020/12/09 02:10:59;;;;;;;8.20;1.15;;;;;;;4.66;100.00;98785.69;5031818;28;20079;-75
2020/12/09 02:14:01;;;;;;;1.02;0.30;;;;;;;4.65;100.00;98783.38;5039410;28;20048;-74
2020/12/09 02:17:04;;;;;;;0.85;0.35;;;;;;;4.68;100.00;98790.75;5051786;28;20086;-74
2020/12/09 02:20:08;;;;;;;11.02;1.35;;;;;;;4.65;100.00;98783.38;5052138;28;20549;-74
2020/12/09 02:23:11;;;;;;;2.72;0.57;;;;;;;4.67;100.00;98783.69;5051913;28;20702;-75
2020/12/09 02:26:14;;;;;;;2.05;0.73;;;;;;;4.68;100.00;98793.50;5051674;28;20111;-75
2020/12/09 02:29:17;;;;;;;1.45;1.08;;;;;;;4.66;100.00;98790.44;5052209;28;20056;-74
2020/12/09 02:32:21;;;;;;;12.48;0.65;;;;;;;4.65;100.00;98794.41;5052003;28;20064;-75
2020/12/09 02:35:24;;;;;;;8.85;0.43;;;;;;;4.64;100.00;98790.88;5051845;28;20457;-74
2020/12/09 02:38:27;;;;;;;0.63;0.30;;;;;;;4.63;100.00;98787.38;5051190;28;20416;-75
2020/12/09 02:41:30;;;;;;;0.77;0.47;;;;;;;4.61;100.00;98787.06;5053519;28;20076;-76
2020/12/09 02:44:33;;;;;;;3.97;0.55;;;;;;;4.61;100.00;98789.81;5053154;28;20134;-75
2020/12/09 02:47:36;;;;;;;2.85;1.08;;;;;;;4.61;100.00;98798.09;5051744;28;20504;-74
2020/12/09 02:50:39;;;;;;;1.42;1.13;;;;;;;4.59;100.00;98792.28;5051538;28;20509;-75
2020/12/09 02:53:42;;;;;;;3.20;0.60;;;;;;;4.58;100.00;98796.28;5051517;28;20079;-74
2020/12/09 02:56:45;;;;;;;1.50;0.60;;;;;;;4.58;100.00;98801.00;5051343;28;20126;-74
2020/12/09 02:59:48;;;;;;;6.10;1.05;;;;;;;4.55;100.00;98797.19;5051454;28;20132;-75
2020/12/09 03:02:51;;;;;;;0.52;0.52;;;;;;;4.54;100.00;98795.66;5051392;28;20635;-74
2020/12/09 03:05:54;;;;;;;4.72;1.17;;;;;;;4.53;100.00;98796.09;5053443;28;20128;-74
2020/12/09 03:08:57;;;;;;;17.63;1.10;;;;;;;4.52;100.00;98803.63;5054967;28;20055;-75
2020/12/09 03:12:00;;;;;;;0.30;0.20;;;;;;;4.52;100.00;98803.63;5054675;28;20156;-74
2020/12/09 03:15:03;;;;;;;0.10;0.10;;;;;;;4.53;100.00;98802.38;5054893;28;20469;-75
2020/12/09 03:18:06;;;;;;;13.25;1.20;;;;;;;4.52;100.00;98798.13;5055112;28;20107;-75
2020/12/09 03:21:09;;;;;;;0.45;0.30;;;;;;;4.53;100.00;98804.38;5055174;28;20098;-74
2020/12/09 03:24:11;;;;;;;3.13;1.08;;;;;;;4.54;100.00;98803.94;5055028;28;20047;-74
2020/12/09 03:27:15;;;;;;;6.93;0.47;;;;;;;4.50;100.00;98800.53;5055069;28;20070;-75
2020/12/09 03:30:17;;;;;;;4.10;1.08;;;;;;;4.51;100.00;98791.06;5054577;28;20056;-74
2020/12/09 03:33:20;;;;;;;0.45;0.30;;;;;;;4.50;100.00;98789.50;5054645;28;20068;-75
2020/12/09 03:36:23;;;;;;;5.82;0.68;;;;;;;4.50;100.00;98800.53;5054453;28;20099;-76
2020/12/09 03:39:26;;;;;;;0.20;0.10;;;;;;;4.48;100.00;98800.25;5054603;28;20090;-75
2020/12/09 03:42:29;;;;;;;0.10;0.10;;;;;;;4.47;100.00;98795.97;5054732;28;20543;-75
2020/12/09 03:45:32;;;;;;;2.00;0.30;;;;;;;4.46;100.00;98799.19;5054481;28;20587;-75
2020/12/09 03:48:35;;;;;;;0.47;0.30;;;;;;;4.46;100.00;98799.94;5054406;28;20052;-75
2020/12/09 03:51:38;;;;;;;5.50;0.50;;;;;;;4.47;100.00;98811.72;5054315;28;20102;-74
2020/12/09 03:54:40;;;;;;;7.45;0.65;;;;;;;4.44;100.00;98807.91;5041905;28;20044;-74
2020/12/09 03:57:43;;;;;;;0.57;0.55;;;;;;;4.46;100.00;98799.19;5054154;28;20098;-75
2020/12/09 04:00:46;;;;;;;0.45;0.43;;;;;;;4.45;100.00;98806.69;5054334;28;20055;-75
2020/12/09 04:03:49;;;;;;;2.40;0.52;;;;;;;4.46;100.00;98810.97;5054449;28;20048;-74
2020/12/09 04:06:52;;;;;;;0.10;0.10;;;;;;;4.44;100.00;98801.66;5053984;28;20156;-76
2020/12/09 04:09:54;;;;;;;0.55;0.55;;;;;;;4.44;100.00;98807.91;5053785;28;20507;-74
2020/12/09 04:12:57;;;;;;;0.90;0.10;;;;;;;4.42;100.00;98813.09;5054013;28;20080;-74
2020/12/09 04:16:00;;;;;;;1.15;0.65;;;;;;;4.42;100.00;98810.34;5053319;28;20102;-75
2020/12/09 04:19:03;;;;;;;7.88;0.80;;;;;;;4.42;100.00;98818.63;5053795;28;20051;-75
2020/12/09 04:22:06;;;;;;;0.20;0.20;;;;;;;4.41;100.00;98819.09;5054040;28;20048;-74
2020/12/09 04:25:08;;;;;;;0.70;0.20;;;;;;;4.40;100.00;98807.28;5053685;28;20132;-74
2020/12/09 04:28:11;;;;;;;11.48;0.93;;;;;;;4.39;100.00;98811.28;5053716;28;20059;-75
2020/12/09 04:31:14;;;;;;;10.13;0.68;;;;;;;4.38;100.00;98814.47;5053449;28;20079;-74
2020/12/09 04:34:19;;;;;;;1.13;0.50;;;;;;;4.38;100.00;98818.00;5053392;28;20397;-73
2020/12/09 04:37:25;;;;;;;2.90;0.73;;;;;;;4.38;100.00;98826.28;5053082;28;20055;-73
2020/12/09 04:40:29;;;;;;;0.25;0.15;;;;;;;4.38;100.00;98826.28;5055185;28;20504;-73
2020/12/09 04:43:32;;;;;;;0.10;0.10;;;;;;;4.37;100.00;98821.25;5053250;28;20060;-73
2020/12/09 04:46:40;;;;;;;0.05;0.00;;;;;;;4.37;100.00;98824.75;5053098;28;20055;-73
2020/12/09 04:49:47;;;;;;;0.40;0.20;;;;;;;4.37;100.00;98830.28;5053443;28;20102;-73
2020/12/09 04:53:08;;;;;;;0.85;0.20;;;;;;;4.35;100.00;98829.94;5053279;28;20128;-73
2020/12/09 04:56:26;;;;;;;0.28;0.28;;;;;;;4.35;100.00;98827.19;5053198;28;20087;-75
2020/12/09 04:59:34;;;;;;;0.43;0.25;;;;;;;4.34;100.00;98828.44;5052889;28;20091;-74
2020/12/09 05:02:45;;;;;;;0.28;0.20;;;;;;;4.34;100.00;98836.69;5040849;28;20504;-74
2020/12/09 05:05:48;;;;;;;0.50;0.50;;;;;;;4.33;100.00;98826.88;5053231;28;20094;-73
2020/12/09 05:08:56;;;;;;;0.10;0.10;;;;;;;4.33;100.00;98831.66;5052976;28;20063;-73
2020/12/09 05:12:06;;;;;;;0.90;0.85;;;;;;;4.30;100.00;98836.09;5052671;28;20056;-74
2020/12/09 05:15:17;;;;;;;0.65;0.55;;;;;;;4.31;100.00;98836.84;5052442;28;20086;-74
2020/12/09 05:18:39;;;;;;;0.52;0.52;;;;;;;4.31;100.00;98839.59;5052552;28;20579;-74
2020/12/09 05:21:47;;;;;;;9.07;0.73;;;;;;;4.32;100.00;98844.66;5052469;28;20136;-76
2020/12/09 05:24:50;;;;;;;0.90;0.45;;;;;;;4.31;100.00;98843.09;5052655;28;20079;-74
2020/12/09 05:27:55;;;;;;;0.77;0.30;;;;;;;4.30;100.00;98844.34;5051957;28;20047;-74
2020/12/09 05:30:58;;;;;;;0.20;0.20;;;;;;;4.29;100.00;98834.53;5052531;28;20075;-75
2020/12/09 05:34:02;;;;;;;1.33;0.35;;;;;;;4.32;100.00;98838.38;5052642;28;20102;-74
2020/12/09 05:37:11;;;;;;;6.57;0.57;;;;;;;4.30;100.00;98841.59;5052581;28;20154;-74
2020/12/09 05:40:29;;;;;;;0.30;0.30;;;;;;;4.30;100.00;98840.81;5052160;28;20071;-74
2020/12/09 05:43:32;;;;;;;4.97;1.15;;;;;;;4.30;100.00;98846.34;5052342;28;20122;-74
2020/12/09 05:46:52;;;;;;;5.10;0.65;;;;;;;4.27;100.00;98845.25;5052020;28;20479;-74
2020/12/09 05:49:56;;;;;;;11.30;0.43;;;;;;;4.28;100.00;98846.03;5051901;28;20055;-74
2020/12/09 05:53:15;;;;;;;0.47;0.22;;;;;;;4.28;100.00;98863.34;5051981;28;20076;-74
2020/12/09 05:56:27;;;;;;;0.30;0.10;;;;;;;4.26;100.00;98856.75;5052172;28;20048;-74
2020/12/09 05:59:50;;;;;;;;;;;;;;;4.27;100.00;98864.53;5052383;28;20551;-74
2020/12/09 06:02:53;;;;;;;1.10;0.43;;;;;;;4.25;100.00;98863.47;5052225;28;20264;-75
2020/12/09 06:06:25;;;;;;;1.08;0.25;;;;;;;4.22;100.00;98862.38;5049102;28;20083;-74
2020/12/09 06:09:28;;;;;;;1.25;0.20;;;;;;;4.22;100.00;98870.66;5050479;28;20043;-75
2020/12/09 06:12:57;;;;;;;0.40;0.35;;;;;;;4.22;100.00;98876.16;5050779;28;20067;-74
2020/12/09 06:16:02;;;;;;;0.25;0.10;;;;;;;4.22;100.00;98872.66;5049460;28;20479;-74
2020/12/09 06:19:05;;;;;;;4.57;1.35;;;;;;;4.21;100.00;98882.13;5049940;28;20040;-74
2020/12/09 06:22:07;;;;;;;0.65;0.55;;;;;;;4.19;100.00;98882.59;5050363;28;20048;-73
2020/12/09 06:25:10;;;;;;;1.42;0.43;;;;;;;4.20;100.00;98880.63;5050294;28;20040;-74
2020/12/09 06:28:19;;;;;;;9.30;2.00;;;;;;;4.20;100.00;98881.34;5050773;28;20080;-74
2020/12/09 06:31:22;;;;;;;1.00;0.30;;;;;;;4.21;100.00;98885.66;5050062;28;20106;-74
2020/12/09 06:34:25;;;;;;;3.75;0.77;;;;;;;4.20;100.00;98886.88;5049693;28;20036;-74
2020/12/09 06:37:28;;;;;;;0.20;0.20;;;;;;;4.19;100.00;98887.34;5052051;28;20081;-74
2020/12/09 06:40:31;;;;;;;1.45;1.35;;;;;;;4.20;100.00;98892.38;5054076;28;20052;-75
2020/12/09 06:43:34;;;;;;;5.47;2.08;;;;;;;4.20;100.00;98897.91;5054511;28;20075;-74
2020/12/09 06:46:51;;;;;;;3.40;1.38;;;;;;;4.18;100.00;98889.31;5052913;28;20087;-74
2020/12/09 06:49:54;;;;;;;5.30;1.15;;;;;;;4.18;100.00;98889.31;5051121;28;20079;-73
2020/12/09 06:53:14;;;;;;;3.03;0.73;;;;;;;4.17;100.00;98893.31;5035812;28;20056;-74
2020/12/09 06:56:17;;;;;;;7.05;1.30;;;;;;;4.17;100.00;98892.53;5041605;28;20404;-74
2020/12/09 06:59:27;;;;;;;1.23;0.43;;;;;;;4.17;100.00;98892.53;5053844;28;20439;-74
2020/12/09 07:02:29;;;;;;;5.20;1.90;;;;;;;4.15;100.00;98890.25;5038084;28;20060;-73
2020/12/09 07:05:33;;;;;;;1.00;0.90;;;;;;;4.16;100.00;98891.03;5055122;28;20136;-75
2020/12/09 07:08:44;;;;;;;6.65;0.93;;;;;;;4.14;100.00;98880.44;5054806;28;20512;-74
2020/12/09 07:11:53;;;;;;;0.40;0.40;;;;;;;4.14;100.00;98891.44;5055077;28;20111;-73
2020/12/09 07:14:58;;;;;;;0.70;0.43;;;;;;;4.14;100.00;98887.94;5053896;28;20044;-74
2020/12/09 07:18:01;;;;;;;3.10;0.70;;;;;;;4.12;100.00;98888.38;5055202;28;20476;-75
2020/12/09 07:21:06;;;;;;;1.58;0.50;;;;;;;4.12;100.00;98885.63;5054945;28;20055;-74
2020/12/09 07:24:08;;;;;;;1.17;0.52;;;;;;;4.13;100.00;98891.91;5054842;28;20098;-74
2020/12/09 07:27:12;;;;;;;1.20;0.68;;;;;;;4.11;100.00;98889.63;5054518;28;20052;-75
2020/12/09 07:30:17;;;;;;;7.97;1.88;;;;;;;4.13;100.00;98906.47;5054264;28;20140;-74
2020/12/09 07:33:20;;;;;;;1.98;1.38;;;;;;;4.12;100.00;98898.63;5054798;28;20067;-74
2020/12/09 07:36:23;;;;;;;0.20;0.20;;;;;;;4.11;100.00;98900.66;5054745;28;20452;-75
2020/12/09 07:39:34;;;;;;;1.65;0.90;;;;;;;4.10;100.00;98910.13;5054449;28;20472;-74
2020/12/09 07:42:38;;;;;;;2.90;0.88;;;;;;;4.11;100.00;98910.91;5041682;28;20048;-75
2020/12/09 07:45:43;;;;;;;1.60;0.63;;;;;;;4.10;100.00;98921.13;5053901;28;20052;-75
2020/12/09 07:48:46;;;;;;;2.30;0.75;;;;;;;4.08;100.00;98911.78;5054253;28;20067;-74
2020/12/09 07:51:51;;;;;;;0.80;0.50;;;;;;;4.08;100.00;98929.09;5052305;28;20486;-75
2020/12/09 07:54:56;;;;;;;2.75;0.75;;;;;;;4.08;100.00;98931.06;5054243;28;20485;-74
2020/12/09 07:58:07;;;;;;;0.60;0.38;;;;;;;4.07;100.00;98938.56;5054505;28;20108;-75
2020/12/09 08:01:25;;;;;;;3.47;0.50;;;;;;;4.05;100.00;98934.75;5054319;28;20440;-74
2020/12/09 08:04:28;;;;;;;12.02;1.42;;;;;;;4.04;100.00;98933.97;5054546;28;20056;-75
2020/12/09 08:07:31;;;;;;;2.15;1.23;;;;;;;4.05;100.00;98941.00;5054294;28;20047;-74
2020/12/09 08:10:35;;;;;;;2.58;0.82;;;;;;;4.03;100.00;98932.44;5053544;28;20052;-74
2020/12/09 08:13:38;;;;;;;1.38;0.80;;;;;;;4.01;100.00;98934.88;5053185;28;20167;-74
2020/12/09 08:16:41;;;;;;;3.15;1.02;;;;;;;4.00;100.00;98927.06;5033699;28;20078;-73
2020/12/09 08:20:08;;;;;;;3.65;0.82;;;;;;;3.99;100.00;98934.56;5033514;28;20095;-74
2020/12/09 08:23:11;;;;;;;12.38;1.15;;;;;;;4.00;100.00;98941.63;5033520;28;20894;-73
2020/12/09 08:26:29;;;;;;;0.80;0.47;;;;;;;4.01;100.00;98934.88;5033540;28;20636;-73
2020/12/09 08:29:32;;;;;;;1.23;0.75;;;;;;;4.01;100.00;98943.13;5035789;28;20119;-74
2020/12/09 08:32:56;;;;;;;4.03;0.22;;;;;;;4.01;100.00;98942.38;5038289;28;20076;-73
2020/12/09 08:36:06;;;;;;;7.85;2.75;;;;;;;4.03;100.00;98953.72;5034745;28;20057;-73
2020/12/09 08:39:09;;;;;;;1.20;0.85;;;;;;;4.04;100.00;98939.50;5033717;28;20198;-73
2020/12/09 08:42:19;;;;;;;7.57;0.30;;;;;;;4.01;100.00;98934.88;5033162;28;20102;-73
2020/12/09 08:45:22;;;;;;;1.88;1.13;;;;;;;4.00;100.00;98932.59;5033407;28;20052;-73
2020/12/09 08:48:25;;;;;;;1.92;0.28;;;;;;;3.97;100.00;98934.25;5033426;28;20040;-74
2020/12/09 08:51:29;;;;;;;1.95;0.73;;;;;;;3.96;100.00;98941.00;5033535;28;20239;-74
2020/12/09 08:54:32;;;;;;;4.10;0.82;;;;;;;3.94;100.00;98939.91;5033234;28;20048;-74
2020/12/09 08:57:35;;;;;;;7.75;0.80;;;;;;;3.92;100.00;98936.84;5033166;28;20060;-74
2020/12/09 09:00:39;;;;;;;0.55;0.10;;;;;;;3.87;100.00;98940.94;5032936;28;20843;-73
2020/12/09 09:03:42;;;;;;;0.60;0.38;;;;;;;3.86;100.00;98942.16;5031989;28;20494;-73
2020/12/09 09:06:45;;;;;;;23.17;0.90;;;;;;;3.89;100.00;98944.03;5032777;28;20139;-73
2020/12/09 09:09:48;;;;;;;4.15;0.45;;;;;;;3.93;100.00;98944.66;5032702;28;20052;-73
2020/12/09 09:12:50;;;;;;;1.77;0.90;;;;;;;3.97;100.00;98939.75;5033207;28;20043;-72
2020/12/09 09:15:53;;;;;;;1.42;0.50;;;;;;;4.04;100.00;98939.50;5032781;28;20415;-73
2020/12/09 09:18:57;;;;;;;1.08;0.55;;;;;;;4.11;100.00;98939.22;5032697;28;20045;-72
2020/12/09 09:22:00;;;;;;;0.30;0.30;;;;;;;4.15;100.00;98945.34;5032457;28;20052;-73
2020/12/09 09:25:04;;;;;;;4.68;1.00;;;;;;;4.24;100.00;98937.13;5032241;28;20044;-73
2020/12/09 09:28:07;;;;;;;2.58;0.40;;;;;;;4.24;100.00;98948.13;5032851;28;20052;-73
2020/12/09 09:31:10;;;;;;;12.05;0.40;;;;;;;4.24;100.00;98948.13;5032556;28;20043;-72
2020/12/09 09:34:13;;;;;;;1.45;0.73;;;;;;;4.30;100.00;98959.31;5032442;28;20128;-72
2020/12/09 09:37:15;;;;;;;0.50;0.50;;;;;;;4.32;100.00;98959.63;5032438;28;20053;-73
2020/12/09 09:40:18;;;;;;;2.40;0.60;;;;;;;4.35;100.00;98962.22;5032348;28;20094;-73
2020/12/09 09:43:21;;;;;;;2.35;0.55;;;;;;;4.39;100.00;98964.88;5032583;28;20075;-73
2020/12/09 09:46:24;;;;;;;19.00;1.02;;;;;;;4.38;100.00;98958.56;5032396;28;20135;-75
2020/12/09 09:49:27;;;;;;;0.25;0.20;;;;;;;4.39;100.00;98960.13;5032264;28;20076;-75
2020/12/09 09:52:30;;;;;;;1.05;0.43;;;;;;;4.40;100.00;98961.66;5032335;28;20053;-75
2020/12/09 09:55:33;;;;;;;2.13;0.52;;;;;;;4.40;100.00;98960.88;5031857;28;20053;-76
2020/12/09 09:58:36;;;;;;;0.38;0.25;;;;;;;4.38;100.00;98958.56;5031947;28;20052;-75
2020/12/09 10:01:38;;;;;;;1.60;0.55;;;;;;;4.38;100.00;98952.28;5031795;28;20444;-75
2020/12/09 10:04:41;;;;;;;0.10;0.10;;;;;;;4.38;100.00;98944.78;5032120;28;20088;-75
2020/12/09 10:07:44;;;;;;;2.40;0.95;;;;;;;4.37;100.00;98940.53;5031999;28;20100;-75
2020/12/09 10:10:47;;;;;;;0.52;0.30;;;;;;;4.34;100.00;98941.41;5031643;28;20115;-75
2020/12/09 10:13:50;;;;;;;3.90;0.65;;;;;;;4.32;100.00;98938.34;5037391;28;20159;-75
2020/12/09 10:16:57;;;;;;;0.20;0.20;;;;;;;4.30;100.00;98937.28;5051846;28;20456;-75
2020/12/09 10:20:00;;;;;;;2.60;0.63;;;;;;;4.29;100.00;98927.47;5051812;28;20099;-74
2020/12/09 10:23:03;;;;;;;1.05;0.20;;;;;;;4.28;100.00;98929.47;5052139;28;20088;-75
2020/12/09 10:26:06;;;;;;;0.95;0.20;;;;;;;4.30;100.00;98924.28;5051670;28;20047;-74
2020/12/09 10:29:11;;;;;;;0.82;0.10;;;;;;;4.32;100.00;98930.09;5039558;28;20051;-74
2020/12/09 10:32:13;;;;;;;11.52;0.60;;;;;;;4.36;100.00;98935.44;5051620;28;20409;-73
2020/12/09 10:35:16;;;;;;;0.32;0.30;;;;;;;4.36;100.00;98933.47;5052535;28;20469;-77
2020/12/09 10:38:19;;;;;;;0.38;0.38;;;;;;;4.37;100.00;98929.50;5051208;28;20101;-74
2020/12/09 10:41:22;;;;;;;1.70;0.43;;;;;;;4.38;100.00;98925.50;5051575;28;20120;-74
2020/12/09 10:44:25;;;;;;;1.65;0.73;;;;;;;4.39;100.00;98921.53;5051583;28;20114;-74
2020/12/09 10:47:30;;;;;;;0.38;0.35;;;;;;;4.40;100.00;98923.06;5051624;28;20076;-75
2020/12/09 10:50:33;;;;;;;0.28;0.25;;;;;;;4.39;100.00;98921.53;5051520;28;20056;-75
2020/12/09 10:53:36;;;;;;;0.30;0.30;;;;;;;4.38;100.00;98924.72;5051455;28;20052;-76
2020/12/09 10:56:39;;;;;;;0.28;0.28;;;;;;;4.38;100.00;98920.00;5051495;28;20583;-76
2020/12/09 10:59:42;;;;;;;7.85;1.25;;;;;;;4.36;100.00;98911.41;5051536;28;20072;-77
2020/12/09 11:02:45;;;;;;;1.38;0.73;;;;;;;4.33;100.00;98912.31;5049829;28;20052;-76
2020/12/09 11:05:48;;;;;;;3.35;1.05;;;;;;;4.28;100.00;98904.66;5051387;28;20052;-76
2020/12/09 11:08:51;;;;;;;5.78;1.00;;;;;;;4.26;100.00;98895.31;5051439;28;20131;-76
2020/12/09 11:11:54;;;;;;;4.53;0.32;;;;;;;4.25;100.00;98902.81;5051148;28;20099;-76
2020/12/09 11:14:58;;;;;;;0.30;0.30;;;;;;;4.25;100.00;98902.81;5050807;28;20496;-76
2020/12/09 11:18:01;;;;;;;0.32;0.20;;;;;;;4.25;100.00;98897.31;5031485;28;20100;-76
2020/12/09 11:21:04;;;;;;;0.20;0.00;;;;;;;4.22;100.00;98895.44;5031219;28;20497;-75
2020/12/09 11:24:07;;;;;;;4.70;0.50;;;;;;;4.20;100.00;98886.13;5031349;28;20064;-76
2020/12/09 11:27:09;;;;;;;0.45;0.32;;;;;;;4.16;100.00;98886.25;5033947;28;20043;-76
2020/12/09 11:30:12;;;;;;;1.38;0.20;;;;;;;4.15;100.00;98881.97;5034805;28;20095;-76
2020/12/09 11:33:15;;;;;;;0.45;0.43;;;;;;;4.16;100.00;98882.75;5034782;28;20044;-75
2020/12/09 11:36:22;;;;;;;0.47;0.38;;;;;;;4.16;100.00;98880.75;5034904;28;20103;-76
2020/12/09 11:39:26;;;;;;;0.30;0.30;;;;;;;4.19;100.00;98873.56;5034772;28;20072;-76
2020/12/09 11:42:34;;;;;;;6.93;1.02;;;;;;;4.21;100.00;98868.34;5034619;28;20095;-77
2020/12/09 11:45:38;;;;;;;7.78;0.80;;;;;;;4.22;100.00;98867.88;5034425;28;20056;-76
2020/12/09 11:48:41;;;;;;;0.90;0.63;;;;;;;4.25;100.00;98868.97;5034727;28;20130;-74
2020/12/09 11:51:48;;;;;;;0.75;0.20;;;;;;;4.26;100.00;98863.03;5034829;28;20394;-73
2020/12/09 11:54:50;;;;;;;9.23;1.75;;;;;;;4.27;100.00;98858.25;5034624;28;20485;-75
2020/12/09 11:57:53;;;;;;;2.13;0.93;;;;;;;4.28;100.00;98860.56;5034411;28;20175;-73
2020/12/09 12:00:56;;;;;;;16.10;1.77;;;;;;;4.28;100.00;98859.81;5034072;28;20547;-73
2020/12/09 12:03:59;;;;;;;0.52;0.52;;;;;;;4.26;100.00;98840.97;5034325;28;20095;-73
2020/12/09 12:07:02;;;;;;;2.30;0.35;;;;;;;4.25;100.00;98844.94;5034406;28;20048;-73
2020/12/09 12:10:06;;;;;;;0.45;0.10;;;;;;;4.27;100.00;98856.28;5033819;28;20044;-73
2020/12/09 12:13:08;;;;;;;2.60;0.40;;;;;;;4.26;100.00;98854.75;5034537;28;20048;-73
2020/12/09 12:16:17;;;;;;;2.30;0.75;;;;;;;4.30;100.00;98852.63;5053472;28;20040;-74
2020/12/09 12:19:20;;;;;;;0.35;0.30;;;;;;;4.32;100.00;98841.13;5053398;28;20094;-74
2020/12/09 12:22:22;;;;;;;14.40;0.85;;;;;;;4.35;100.00;98832.69;5053983;28;20079;-74
2020/12/09 12:25:25;;;;;;;8.48;0.88;;;;;;;4.37;100.00;98838.53;5053882;28;20516;-74
2020/12/09 12:28:28;;;;;;;6.43;1.80;;;;;;;4.37;100.00;98830.28;5054035;28;20048;-74
2020/12/09 12:31:31;;;;;;;3.22;0.95;;;;;;;4.37;100.00;98827.53;5054110;28;20456;-75
2020/12/09 12:34:35;;;;;;;0.43;0.43;;;;;;;4.37;100.00;98821.25;5052256;28;20052;-75
2020/12/09 12:37:39;;;;;;;1.98;0.57;;;;;;;4.37;100.00;98816.50;5050120;28;20119;-75
2020/12/09 12:40:42;;;;;;;1.27;0.63;;;;;;;4.40;100.00;98817.53;5051252;28;20421;-74
2020/12/09 12:43:45;;;;;;;1.58;1.33;;;;;;;4.42;100.00;98815.88;5053429;28;20065;-75
2020/12/09 12:46:49;;;;;;;6.82;1.02;;;;;;;4.43;100.00;98806.38;5053226;28;20059;-76
2020/12/09 12:49:52;;;;;;;14.15;2.03;;;;;;;4.46;100.00;98796.44;5053150;28;20128;-76
2020/12/09 12:52:55;;;;;;;0.50;0.30;;;;;;;4.48;100.00;98791.97;5052943;28;20144;-76
2020/12/09 12:55:58;;;;;;;2.58;0.43;;;;;;;4.49;100.00;98793.50;5052951;28;20132;-76
2020/12/09 12:59:01;;;;;;;0.32;0.32;;;;;;;4.50;100.00;98791.53;5053302;28;20163;-76
2020/12/09 13:02:03;;;;;;;1.58;0.47;;;;;;;4.47;100.00;98790.44;5053025;28;20048;-76
2020/12/09 13:05:06;;;;;;;0.35;0.30;;;;;;;4.45;100.00;98792.91;5052919;28;20051;-76
2020/12/09 13:08:10;;;;;;;0.20;0.10;;;;;;;4.45;100.00;98786.63;5053406;28;20052;-74
2020/12/09 13:11:14;;;;;;;0.65;0.63;;;;;;;4.42;100.00;98780.03;5052504;28;20072;-74
2020/12/09 13:14:18;;;;;;;2.20;1.10;;;;;;;4.43;100.00;98778.06;5052824;28;20095;-74
2020/12/09 13:17:21;;;;;;;0.38;0.10;;;;;;;4.45;100.00;98781.88;5052808;28;20147;-76
2020/12/09 13:20:24;;;;;;;0.73;0.40;;;;;;;4.49;100.00;98782.47;5052666;28;20068;-77
2020/12/09 13:23:27;;;;;;;5.78;1.20;;;;;;;4.50;100.00;98778.50;5052888;28;20095;-74
2020/12/09 13:26:30;;;;;;;0.60;0.60;;;;;;;4.52;100.00;98778.81;5052660;28;20401;-74
2020/12/09 13:29:34;;;;;;;5.47;1.00;;;;;;;4.56;100.00;98760.13;5052673;28;20083;-74
2020/12/09 13:32:36;;;;;;;1.27;1.05;;;;;;;4.58;100.00;98756.91;5032914;28;20048;-74
2020/12/09 13:35:44;;;;;;;1.00;0.90;;;;;;;4.62;100.00;98754.75;5032319;28;20115;-74
2020/12/09 13:38:47;;;;;;;1.20;1.08;;;;;;;4.65;100.00;98751.06;5033090;28;20056;-76
2020/12/09 13:41:50;;;;;;;2.40;0.63;;;;;;;4.67;100.00;98747.84;5032634;28;20410;-75
2020/12/09 13:44:53;;;;;;;0.75;0.30;;;;;;;4.68;100.00;98743.88;5049454;28;20170;-75
2020/12/09 13:47:56;;;;;;;0.57;0.32;;;;;;;4.70;100.00;98746.94;5047443;28;20056;-75
2020/12/09 13:50:59;;;;;;;3.35;0.70;;;;;;;4.74;100.00;98737.28;5013882;28;20047;-74
2020/12/09 13:54:06;;;;;;;16.40;1.50;;;;;;;4.76;100.00;98729.31;5013587;28;20052;-75
2020/12/09 13:57:09;;;;;;;2.13;0.47;;;;;;;4.79;100.00;98733.09;5052502;28;20040;-74
2020/12/09 14:00:12;;;;;;;2.00;1.00;;;;;;;4.81;100.00;98722.41;5052140;28;20089;-74
2020/12/09 14:03:14;;;;;;;1.20;0.77;;;;;;;4.79;100.00;98716.56;5052344;28;20105;-75
2020/12/09 14:06:25;;;;;;;1.10;0.68;;;;;;;4.75;100.00;98710.44;5052177;28;20425;-75
2020/12/09 14:09:28;;;;;;;7.20;0.87;;;;;;;4.70;100.00;98702.81;5052703;28;20508;-75
2020/12/09 14:12:31;;;;;;;12.65;0.47;;;;;;;4.63;100.00;98703.13;5012443;28;20767;-75
2020/12/09 14:15:35;;;;;;;0.70;0.55;;;;;;;4.52;100.00;98693.38;4992151;28;20053;-75
2020/12/09 14:18:39;;;;;;;2.33;0.73;;;;;;;4.44;100.00;98699.66;4996812;28;20192;-75
2020/12/09 14:21:43;;;;;;;6.65;0.70;;;;;;;4.35;100.00;98689.38;5012215;28;20065;-73
2020/12/09 14:24:49;;;;;;;4.07;0.80;;;;;;;4.31;100.00;98688.78;5012020;28;20049;-76
2020/12/09 14:27:51;;;;;;;3.63;1.08;;;;;;;4.24;100.00;98689.13;5011870;28;20513;-75
2020/12/09 14:30:54;;;;;;;0.38;0.38;;;;;;;4.20;100.00;98682.97;5011342;28;20053;-75